Laura, Ohio
Current Conditions -  °F | °C
As of 7:56 PM on Friday 19 Dec 2014 (Local Time) from KDAY Reporting Station
Overcast Overcast  
Wind Chill: 30°   Ceiling: 2000
Heat Index: 30°   Visibility: 8mi
Dew Point: 24°   Wind: 3mph
Humidity: 79%   Direction: 360°N
Pressure: 30.28"   Gusts: NA
Location:  39.99°N, 84.41°W
Report Text: KDAY 200056Z 36003KT 8SM OVC020 M01/M04 A3028 RMK AO2 SLP267 T10111044
Loading
Personal Weather Stations






























Interactive Weather Map New forecast layout! Learn more

10-Day Weather Forecast

Advertisements
Track Severe Weather on mobile